WXM80 ListenWXM80 Stop

You find our weather info also at:

UK Metoffice

WeatherCloud

Weather Underground

Northeastern Weather Network

AWEKAS

Citizen Weather Observer Program (CWOP)

HAMweather, WeatherForYou, PWS Weather


Weather Underground History page Text

Daily Summary for March 18, 2017 Units:  Both    English   Metric
« Previous Day
Next Day »
Daily Weekly Monthly Yearly Custom
  High: Low: Average:
Temperature: 37.8 °F /  3.2 °C 27.0 °F /  -2.8 °C 34.5 °F /  1.4 °C
Dew Point: 34.0 °F /  1.1 °C 20.5 °F /  -6.4 °C 28.5 °F /  -1.9 °C
Humidity: 90 % 55 % 79 %
Wind Speed: 14.9 mph /  24 km/h - 6.2 mph /  10 km/h
Wind Gust: 22.0 mph /  35.4 km/h - -
Wind:- - East
Pressure: 30.22 in /  1023.2 hPa 30.12 in /  1019.9 hPa -
Precipitation: 0.01 in /  0.25 mm    
Historical Graphs
 
 
Tabular Data for March 18, 2017
Time Temperature Dew Point Pressure Wind Wind Speed Wind Gust Humidity Rainfall Rate (Hourly)
00:01 35.1 °F /  1.7 °C 20.5 °F /  -6.4 °C 30.21 in /  1022.9 hPa SW 2.2 mph /  3.5 km/h 6.9 mph /  11.1 km/h 55 % 0.00 in /  0 mm
00:06 35.1 °F /  1.7 °C 20.5 °F /  -6.4 °C 30.21 in /  1022.9 hPa WSW 2.9 mph /  4.7 km/h 6.9 mph /  11.1 km/h 55 % 0.00 in /  0 mm
00:11 35.2 °F /  1.8 °C 20.6 °F /  -6.3 °C 30.21 in /  1022.9 hPa SW 2.2 mph /  3.5 km/h 3.5 mph /  5.6 km/h 55 % 0.00 in /  0 mm
00:16 35.2 °F /  1.8 °C 21.1 °F /  -6.1 °C 30.21 in /  1022.9 hPa WSW 2.0 mph /  3.2 km/h 3.5 mph /  5.6 km/h 56 % 0.00 in /  0 mm
00:21 35.3 °F /  1.8 °C 21.2 °F /  -6 °C 30.20 in /  1022.6 hPa SW 2.4 mph /  3.9 km/h 3.5 mph /  5.6 km/h 56 % 0.00 in /  0 mm
00:26 35.2 °F /  1.8 °C 21.1 °F /  -6.1 °C 30.20 in /  1022.6 hPa SW 1.5 mph /  2.4 km/h 3.5 mph /  5.6 km/h 56 % 0.00 in /  0 mm
00:31 35.2 °F /  1.8 °C 21.1 °F /  -6.1 °C 30.20 in /  1022.6 hPa SW 2.0 mph /  3.2 km/h 3.5 mph /  5.6 km/h 56 % 0.00 in /  0 mm
00:36 35.2 °F /  1.8 °C 21.1 °F /  -6.1 °C 30.20 in /  1022.6 hPa SW 2.2 mph /  3.5 km/h 3.5 mph /  5.6 km/h 56 % 0.00 in /  0 mm
00:41 35.1 °F /  1.7 °C 21.4 °F /  -5.9 °C 30.21 in /  1022.9 hPa SSW 2.8 mph /  4.5 km/h 4.6 mph /  7.4 km/h 57 % 0.00 in /  0 mm
00:46 35.0 °F /  1.7 °C 21.3 °F /  -5.9 °C 30.20 in /  1022.6 hPa SW 1.5 mph /  2.4 km/h 3.5 mph /  5.6 km/h 57 % 0.00 in /  0 mm
00:51 35.0 °F /  1.7 °C 20.9 °F /  -6.2 °C 30.20 in /  1022.6 hPa SW 0.7 mph /  1.1 km/h 2.3 mph /  3.7 km/h 56 % 0.00 in /  0 mm
00:56 35.0 °F /  1.7 °C 20.9 °F /  -6.2 °C 30.20 in /  1022.6 hPa SW 1.5 mph /  2.4 km/h 3.5 mph /  5.6 km/h 56 % 0.00 in /  0 mm
01:01 34.8 °F /  1.6 °C 21.5 °F /  -5.8 °C 30.20 in /  1022.6 hPa SW 0.8 mph /  1.3 km/h 3.5 mph /  5.6 km/h 58 % 0.00 in /  0 mm
01:06 34.7 °F /  1.5 °C 21.0 °F /  -6.1 °C 30.20 in /  1022.6 hPa SW 0.4 mph /  0.6 km/h 2.3 mph /  3.7 km/h 57 % 0.00 in /  0 mm
01:11 34.6 °F /  1.4 °C 21.3 °F /  -5.9 °C 30.20 in /  1022.6 hPa SW 0.9 mph /  1.4 km/h 1.2 mph /  1.9 km/h 58 % 0.00 in /  0 mm
01:16 34.4 °F /  1.3 °C 21.1 °F /  -6.1 °C 30.20 in /  1022.6 hPa SW 0.6 mph /  1 km/h 2.0 mph /  3.2 km/h 58 % 0.00 in /  0 mm
01:21 34.3 °F /  1.3 °C 21.4 °F /  -5.9 °C 30.20 in /  1022.6 hPa WSW 0.3 mph /  0.5 km/h 1.2 mph /  1.9 km/h 59 % 0.00 in /  0 mm
01:26 34.2 °F /  1.2 °C 21.4 °F /  -5.9 °C 30.20 in /  1022.6 hPa Calm   1.2 mph /  1.9 km/h 59 % 0.00 in /  0 mm
01:31 34.0 °F /  1.1 °C 21.2 °F /  -6 °C 30.20 in /  1022.6 hPa WSW 0.5 mph /  0.8 km/h 1.2 mph /  1.9 km/h 59 % 0.00 in /  0 mm
01:36 33.9 °F /  1.1 °C 21.5 °F /  -5.8 °C 30.20 in /  1022.6 hPa WSW 0.3 mph /  0.5 km/h 2.3 mph /  3.7 km/h 60 % 0.00 in /  0 mm
01:41 33.7 °F /  0.9 °C 21.3 °F /  -5.9 °C 30.20 in /  1022.6 hPa Calm     60 % 0.00 in /  0 mm
01:46 33.5 °F /  0.8 °C 21.9 °F /  -5.6 °C 30.21 in /  1022.9 hPa Calm     62 % 0.00 in /  0 mm
01:51 33.3 °F /  0.7 °C 21.7 °F /  -5.7 °C 30.21 in /  1022.9 hPa Calm     62 % 0.00 in /  0 mm
01:56 33.1 °F /  0.6 °C 21.9 °F /  -5.6 °C 30.20 in /  1022.6 hPa Calm     63 % 0.00 in /  0 mm
02:01 32.8 °F /  0.4 °C 21.6 °F /  -5.8 °C 30.21 in /  1022.9 hPa Calm     63 % 0.00 in /  0 mm
02:06 32.6 °F /  0.3 °C 22.1 °F /  -5.5 °C 30.21 in /  1022.9 hPa WSW 0.4 mph /  0.6 km/h 2.0 mph /  3.2 km/h 65 % 0.00 in /  0 mm
02:11 32.1 °F /  0.1 °C 22.0 °F /  -5.6 °C 30.21 in /  1022.9 hPa Calm     66 % 0.00 in /  0 mm
02:16 31.5 °F /  -0.3 °C 21.8 °F /  -5.7 °C 30.21 in /  1022.9 hPa Calm   1.2 mph /  1.9 km/h 67 % 0.00 in /  0 mm
02:21 31.4 °F /  -0.3 °C 22.7 °F /  -5.2 °C 30.20 in /  1022.6 hPa Calm     70 % 0.00 in /  0 mm
02:26 31.3 °F /  -0.4 °C 23.0 °F /  -5 °C 30.21 in /  1022.9 hPa WSW 0.7 mph /  1.1 km/h 1.2 mph /  1.9 km/h 71 % 0.00 in /  0 mm
02:31 31.0 °F /  -0.6 °C 23.7 °F /  -4.6 °C 30.21 in /  1022.9 hPa WSW 1.2 mph /  1.9 km/h 2.3 mph /  3.7 km/h 74 % 0.00 in /  0 mm
02:36 31.0 °F /  -0.6 °C 24.0 °F /  -4.4 °C 30.21 in /  1022.9 hPa WSW 0.7 mph /  1.1 km/h 2.3 mph /  3.7 km/h 75 % 0.00 in /  0 mm
02:41 30.9 °F /  -0.6 °C 23.9 °F /  -4.5 °C 30.21 in /  1022.9 hPa Calm     75 % 0.00 in /  0 mm
02:46 30.8 °F /  -0.7 °C 23.2 °F /  -4.9 °C 30.20 in /  1022.6 hPa Calm     73 % 0.00 in /  0 mm
02:51 30.6 °F /  -0.8 °C 23.0 °F /  -5 °C 30.20 in /  1022.6 hPa WSW 0.6 mph /  1 km/h 2.3 mph /  3.7 km/h 73 % 0.00 in /  0 mm
02:52 30.7 °F /  -0.7 °C 22.7 °F /  -5.2 °C 30.20 in /  1022.6 hPa WSW 0.4 mph /  0.6 km/h 2.3 mph /  3.7 km/h 72 % 0.00 in /  0 mm
02:57 30.5 °F /  -0.8 °C 22.9 °F /  -5.1 °C 30.20 in /  1022.6 hPa Calm     73 % 0.00 in /  0 mm
03:02 30.4 °F /  -0.9 °C 22.8 °F /  -5.1 °C 30.20 in /  1022.6 hPa Calm     73 % 0.00 in /  0 mm
03:07 30.3 °F /  -0.9 °C 23.0 °F /  -5 °C 30.20 in /  1022.6 hPa Calm     74 % 0.00 in /  0 mm
03:12 30.1 °F /  -1.1 °C 22.5 °F /  -5.3 °C 30.20 in /  1022.6 hPa Calm     73 % 0.00 in /  0 mm
03:17 29.9 °F /  -1.2 °C 22.6 °F /  -5.2 °C 30.20 in /  1022.6 hPa Calm     74 % 0.00 in /  0 mm
03:22 29.7 °F /  -1.3 °C 22.4 °F /  -5.3 °C 30.19 in /  1022.2 hPa Calm     74 % 0.00 in /  0 mm
03:27 29.5 °F /  -1.4 °C 22.6 °F /  -5.2 °C 30.19 in /  1022.2 hPa Calm     75 % 0.00 in /  0 mm
03:32 29.3 °F /  -1.5 °C 22.4 °F /  -5.3 °C 30.19 in /  1022.2 hPa Calm     75 % 0.00 in /  0 mm
03:37 29.1 °F /  -1.6 °C 22.2 °F /  -5.4 °C 30.19 in /  1022.2 hPa Calm     75 % 0.00 in /  0 mm
03:42 28.9 °F /  -1.7 °C 22.3 °F /  -5.4 °C 30.19 in /  1022.2 hPa Calm     76 % 0.00 in /  0 mm
03:47 28.7 °F /  -1.8 °C 22.1 °F /  -5.5 °C 30.20 in /  1022.6 hPa Calm     76 % 0.00 in /  0 mm
03:52 28.4 °F /  -2 °C 22.4 °F /  -5.3 °C 30.19 in /  1022.2 hPa Calm     78 % 0.00 in /  0 mm
03:57 28.4 °F /  -2 °C 22.7 °F /  -5.2 °C 30.20 in /  1022.6 hPa Calm     79 % 0.00 in /  0 mm
04:02 28.4 °F /  -2 °C 22.7 °F /  -5.2 °C 30.19 in /  1022.2 hPa Calm     79 % 0.00 in /  0 mm
04:07 28.3 °F /  -2.1 °C 22.6 °F /  -5.2 °C 30.19 in /  1022.2 hPa Calm     79 % 0.00 in /  0 mm
04:12 28.1 °F /  -2.2 °C 22.1 °F /  -5.5 °C 30.19 in /  1022.2 hPa Calm     78 % 0.00 in /  0 mm
04:17 28.0 °F /  -2.2 °C 22.0 °F /  -5.6 °C 30.19 in /  1022.2 hPa Calm     78 % 0.00 in /  0 mm
04:22 27.9 °F /  -2.3 °C 22.2 °F /  -5.4 °C 30.18 in /  1021.9 hPa Calm     79 % 0.00 in /  0 mm
04:27 27.8 °F /  -2.3 °C 22.4 °F /  -5.3 °C 30.18 in /  1021.9 hPa Calm     80 % 0.00 in /  0 mm
04:32 27.7 °F /  -2.4 °C 22.6 °F /  -5.2 °C 30.18 in /  1021.9 hPa Calm     81 % 0.00 in /  0 mm
04:37 27.7 °F /  -2.4 °C 22.9 °F /  -5.1 °C 30.18 in /  1021.9 hPa Calm     82 % 0.00 in /  0 mm
04:42 27.7 °F /  -2.4 °C 23.2 °F /  -4.9 °C 30.19 in /  1022.2 hPa Calm     83 % 0.00 in /  0 mm
04:47 27.7 °F /  -2.4 °C 23.5 °F /  -4.7 °C 30.19 in /  1022.2 hPa Calm     84 % 0.00 in /  0 mm
04:53 27.8 °F /  -2.3 °C 23.9 °F /  -4.5 °C 30.19 in /  1022.2 hPa Calm     85 % 0.00 in /  0 mm
04:58 27.7 °F /  -2.4 °C 23.8 °F /  -4.6 °C 30.19 in /  1022.2 hPa Calm     85 % 0.00 in /  0 mm
05:03 27.7 °F /  -2.4 °C 23.8 °F /  -4.6 °C 30.18 in /  1021.9 hPa WSW 0.1 mph /  0.2 km/h 1.2 mph /  1.9 km/h 85 % 0.00 in /  0 mm
05:08 27.7 °F /  -2.4 °C 24.1 °F /  -4.4 °C 30.18 in /  1021.9 hPa Calm     86 % 0.00 in /  0 mm
05:13 27.7 °F /  -2.4 °C 24.1 °F /  -4.4 °C 30.18 in /  1021.9 hPa Calm   1.2 mph /  1.9 km/h 86 % 0.00 in /  0 mm
05:18 27.7 °F /  -2.4 °C 24.1 °F /  -4.4 °C 30.19 in /  1022.2 hPa Calm     86 % 0.00 in /  0 mm
05:23 27.8 °F /  -2.3 °C 24.4 °F /  -4.2 °C 30.19 in /  1022.2 hPa Calm     87 % 0.00 in /  0 mm
05:28 27.8 °F /  -2.3 °C 24.4 °F /  -4.2 °C 30.19 in /  1022.2 hPa Calm     87 % 0.00 in /  0 mm
05:33 27.8 °F /  -2.3 °C 24.4 °F /  -4.2 °C 30.19 in /  1022.2 hPa Calm     87 % 0.00 in /  0 mm
05:38 27.8 °F /  -2.3 °C 24.4 °F /  -4.2 °C 30.19 in /  1022.2 hPa Calm     87 % 0.00 in /  0 mm
05:43 27.7 °F /  -2.4 °C 24.3 °F /  -4.3 °C 30.19 in /  1022.2 hPa Calm     87 % 0.00 in /  0 mm
05:48 27.6 °F /  -2.4 °C 24.2 °F /  -4.3 °C 30.19 in /  1022.2 hPa Calm     87 % 0.00 in /  0 mm
05:53 27.5 °F /  -2.5 °C 24.1 °F /  -4.4 °C 30.19 in /  1022.2 hPa Calm     87 % 0.00 in /  0 mm
05:58 27.4 °F /  -2.6 °C 24.0 °F /  -4.4 °C 30.19 in /  1022.2 hPa Calm     87 % 0.00 in /  0 mm
06:03 27.3 °F /  -2.6 °C 23.9 °F /  -4.5 °C 30.20 in /  1022.6 hPa Calm     87 % 0.00 in /  0 mm
06:08 27.3 °F /  -2.6 °C 24.2 °F /  -4.3 °C 30.19 in /  1022.2 hPa Calm     88 % 0.00 in /  0 mm
06:13 27.2 °F /  -2.7 °C 24.1 °F /  -4.4 °C 30.19 in /  1022.2 hPa Calm     88 % 0.00 in /  0 mm
06:18 27.2 °F /  -2.7 °C 24.1 °F /  -4.4 °C 30.20 in /  1022.6 hPa Calm     88 % 0.00 in /  0 mm
06:23 27.1 °F /  -2.7 °C 24.0 °F /  -4.4 °C 30.20 in /  1022.6 hPa Calm     88 % 0.00 in /  0 mm
06:28 27.1 °F /  -2.7 °C 24.0 °F /  -4.4 °C 30.20 in /  1022.6 hPa Calm     88 % 0.00 in /  0 mm
06:33 27.0 °F /  -2.8 °C 23.9 °F /  -4.5 °C 30.19 in /  1022.2 hPa Calm     88 % 0.00 in /  0 mm
06:38 27.0 °F /  -2.8 °C 23.9 °F /  -4.5 °C 30.19 in /  1022.2 hPa WSW 0.3 mph /  0.5 km/h 1.0 mph /  1.6 km/h 88 % 0.00 in /  0 mm
06:43 27.0 °F /  -2.8 °C 24.2 °F /  -4.3 °C 30.19 in /  1022.2 hPa WSW 0.7 mph /  1.1 km/h 1.2 mph /  1.9 km/h 89 % 0.00 in /  0 mm
06:48 27.1 °F /  -2.7 °C 24.3 °F /  -4.3 °C 30.19 in /  1022.2 hPa Calm     89 % 0.00 in /  0 mm
06:54 27.1 °F /  -2.7 °C 24.3 °F /  -4.3 °C 30.19 in /  1022.2 hPa Calm     89 % 0.00 in /  0 mm
06:59 27.0 °F /  -2.8 °C 24.2 °F /  -4.3 °C 30.20 in /  1022.6 hPa Calm     89 % 0.00 in /  0 mm
07:04 27.1 °F /  -2.7 °C 24.3 °F /  -4.3 °C 30.20 in /  1022.6 hPa SW 1.0 mph /  1.6 km/h 2.3 mph /  3.7 km/h 89 % 0.00 in /  0 mm
07:09 27.3 °F /  -2.6 °C 24.8 °F /  -4 °C 30.20 in /  1022.6 hPa East 1.3 mph /  2.1 km/h 2.3 mph /  3.7 km/h 90 % 0.00 in /  0 mm
07:14 27.8 °F /  -2.3 °C 25.2 °F /  -3.8 °C 30.20 in /  1022.6 hPa ENE 3.2 mph /  5.1 km/h 5.0 mph /  8 km/h 90 % 0.00 in /  0 mm
07:19 29.2 °F /  -1.6 °C 26.6 °F /  -3 °C 30.20 in /  1022.6 hPa ENE 5.6 mph /  9 km/h 7.0 mph /  11.3 km/h 90 % 0.00 in /  0 mm
07:24 30.6 °F /  -0.8 °C 27.5 °F /  -2.5 °C 30.20 in /  1022.6 hPa ENE 8.1 mph /  13 km/h 10.4 mph /  16.7 km/h 88 % 0.00 in /  0 mm
07:29 32.0 °F /  0 °C 27.4 °F /  -2.6 °C 30.20 in /  1022.6 hPa ENE 6.1 mph /  9.8 km/h 9.2 mph /  14.8 km/h 83 % 0.00 in /  0 mm
07:34 33.1 °F /  0.6 °C 27.0 °F /  -2.8 °C 30.20 in /  1022.6 hPa NE 7.3 mph /  11.7 km/h 10.0 mph /  16.1 km/h 78 % 0.00 in /  0 mm
07:39 33.7 °F /  0.9 °C 26.0 °F /  -3.3 °C 30.21 in /  1022.9 hPa NE 8.0 mph /  12.9 km/h 11.5 mph /  18.5 km/h 73 % 0.00 in /  0 mm
07:44 33.9 °F /  1.1 °C 25.1 °F /  -3.8 °C 30.21 in /  1022.9 hPa East 9.6 mph /  15.4 km/h 14.0 mph /  22.5 km/h 70 % 0.00 in /  0 mm
07:49 34.0 °F /  1.1 °C 25.6 °F /  -3.6 °C 30.21 in /  1022.9 hPa East 6.8 mph /  10.9 km/h 9.2 mph /  14.8 km/h 71 % 0.00 in /  0 mm
07:54 34.0 °F /  1.1 °C 24.9 °F /  -3.9 °C 30.21 in /  1022.9 hPa ENE 6.9 mph /  11.1 km/h 11.5 mph /  18.5 km/h 69 % 0.00 in /  0 mm
07:59 33.9 °F /  1.1 °C 24.4 °F /  -4.2 °C 30.22 in /  1023.2 hPa ENE 6.6 mph /  10.6 km/h 11.0 mph /  17.7 km/h 68 % 0.00 in /  0 mm
08:04 33.9 °F /  1.1 °C 24.8 °F /  -4 °C 30.21 in /  1022.9 hPa ENE 7.3 mph /  11.7 km/h 11.5 mph /  18.5 km/h 69 % 0.00 in /  0 mm
08:10 33.9 °F /  1.1 °C 25.1 °F /  -3.8 °C 30.21 in /  1022.9 hPa ENE 9.5 mph /  15.3 km/h 9.5 mph /  15.3 km/h 70 % 0.00 in /  0 mm
08:15 33.9 °F /  1.1 °C 25.1 °F /  -3.8 °C 30.22 in /  1023.2 hPa ENE 7.3 mph /  11.7 km/h 11.5 mph /  18.5 km/h 70 % 0.00 in /  0 mm
08:20 33.8 °F /  1 °C 25.0 °F /  -3.9 °C 30.21 in /  1022.9 hPa ENE 7.1 mph /  11.4 km/h 11.5 mph /  18.5 km/h 70 % 0.00 in /  0 mm
08:25 33.8 °F /  1 °C 25.4 °F /  -3.7 °C 30.21 in /  1022.9 hPa ENE 5.1 mph /  8.2 km/h 8.1 mph /  13 km/h 71 % 0.00 in /  0 mm
08:30 33.9 °F /  1.1 °C 25.8 °F /  -3.4 °C 30.21 in /  1022.9 hPa ENE 6.9 mph /  11.1 km/h 9.2 mph /  14.8 km/h 72 % 0.00 in /  0 mm
08:35 33.9 °F /  1.1 °C 25.8 °F /  -3.4 °C 30.21 in /  1022.9 hPa East 8.0 mph /  12.9 km/h 11.5 mph /  18.5 km/h 72 % 0.00 in /  0 mm
08:40 34.1 °F /  1.2 °C 26.3 °F /  -3.2 °C 30.21 in /  1022.9 hPa ENE 4.9 mph /  7.9 km/h 11.5 mph /  18.5 km/h 73 % 0.00 in /  0 mm
08:45 34.2 °F /  1.2 °C 25.8 °F /  -3.4 °C 30.21 in /  1022.9 hPa ENE 7.8 mph /  12.6 km/h 9.2 mph /  14.8 km/h 71 % 0.00 in /  0 mm
08:50 34.3 °F /  1.3 °C 25.5 °F /  -3.6 °C 30.21 in /  1022.9 hPa East 5.6 mph /  9 km/h 8.1 mph /  13 km/h 70 % 0.00 in /  0 mm
08:55 34.5 °F /  1.4 °C 26.4 °F /  -3.1 °C 30.21 in /  1022.9 hPa ENE 5.4 mph /  8.7 km/h 8.1 mph /  13 km/h 72 % 0.00 in /  0 mm
09:00 34.6 °F /  1.4 °C 26.2 °F /  -3.2 °C 30.21 in /  1022.9 hPa ENE 6.6 mph /  10.6 km/h 8.1 mph /  13 km/h 71 % 0.00 in /  0 mm
09:05 34.8 °F /  1.6 °C 26.4 °F /  -3.1 °C 30.21 in /  1022.9 hPa East 4.9 mph /  7.9 km/h 9.2 mph /  14.8 km/h 71 % 0.00 in /  0 mm
09:10 35.0 °F /  1.7 °C 26.9 °F /  -2.8 °C 30.21 in /  1022.9 hPa ENE 6.6 mph /  10.6 km/h 9.2 mph /  14.8 km/h 72 % 0.00 in /  0 mm
09:15 35.1 °F /  1.7 °C 27.0 °F /  -2.8 °C 30.22 in /  1023.2 hPa East 6.7 mph /  10.8 km/h 9.0 mph /  14.5 km/h 72 % 0.00 in /  0 mm
09:20 35.2 °F /  1.8 °C 27.1 °F /  -2.7 °C 30.21 in /  1022.9 hPa East 7.0 mph /  11.3 km/h 9.2 mph /  14.8 km/h 72 % 0.00 in /  0 mm
09:25 35.3 °F /  1.8 °C 27.5 °F /  -2.5 °C 30.21 in /  1022.9 hPa East 8.2 mph /  13.2 km/h 9.2 mph /  14.8 km/h 73 % 0.00 in /  0 mm
09:30 35.4 °F /  1.9 °C 27.9 °F /  -2.3 °C 30.21 in /  1022.9 hPa ENE 8.3 mph /  13.4 km/h 9.2 mph /  14.8 km/h 74 % 0.00 in /  0 mm
09:36 35.5 °F /  1.9 °C 28.4 °F /  -2 °C 30.20 in /  1022.6 hPa ENE 6.7 mph /  10.8 km/h 9.2 mph /  14.8 km/h 75 % 0.00 in /  0 mm
09:41 35.6 °F /  2 °C 28.8 °F /  -1.8 °C 30.20 in /  1022.6 hPa ENE 7.2 mph /  11.6 km/h 9.0 mph /  14.5 km/h 76 % 0.00 in /  0 mm
09:46 35.7 °F /  2.1 °C 28.9 °F /  -1.7 °C 30.20 in /  1022.6 hPa ENE 8.0 mph /  12.9 km/h 9.2 mph /  14.8 km/h 76 % 0.00 in /  0 mm
09:51 35.7 °F /  2.1 °C 28.9 °F /  -1.7 °C 30.20 in /  1022.6 hPa East 6.5 mph /  10.5 km/h 9.2 mph /  14.8 km/h 76 % 0.00 in /  0 mm
09:56 35.9 °F /  2.2 °C 28.7 °F /  -1.8 °C 30.21 in /  1022.9 hPa East 7.4 mph /  11.9 km/h 10.4 mph /  16.7 km/h 75 % 0.00 in /  0 mm
10:01 36.0 °F /  2.2 °C 28.8 °F /  -1.8 °C 30.21 in /  1022.9 hPa East 5.6 mph /  9 km/h 8.1 mph /  13 km/h 75 % 0.00 in /  0 mm
10:06 36.0 °F /  2.2 °C 28.5 °F /  -1.9 °C 30.21 in /  1022.9 hPa East 7.7 mph /  12.4 km/h 11.5 mph /  18.5 km/h 74 % 0.00 in /  0 mm
10:11 36.0 °F /  2.2 °C 28.5 °F /  -1.9 °C 30.22 in /  1023.2 hPa ENE 7.7 mph /  12.4 km/h 9.2 mph /  14.8 km/h 74 % 0.00 in /  0 mm
10:16 36.0 °F /  2.2 °C 28.8 °F /  -1.8 °C 30.21 in /  1022.9 hPa East 8.1 mph /  13 km/h 10.4 mph /  16.7 km/h 75 % 0.00 in /  0 mm
10:21 36.1 °F /  2.3 °C 28.6 °F /  -1.9 °C 30.21 in /  1022.9 hPa East 7.1 mph /  11.4 km/h 10.4 mph /  16.7 km/h 74 % 0.00 in /  0 mm
10:26 36.3 °F /  2.4 °C 28.8 °F /  -1.8 °C 30.21 in /  1022.9 hPa ENE 6.9 mph /  11.1 km/h 9.2 mph /  14.8 km/h 74 % 0.00 in /  0 mm
10:31 36.4 °F /  2.4 °C 28.9 °F /  -1.7 °C 30.21 in /  1022.9 hPa East 9.0 mph /  14.5 km/h 12.7 mph /  20.4 km/h 74 % 0.00 in /  0 mm
10:36 36.4 °F /  2.4 °C 29.2 °F /  -1.6 °C 30.21 in /  1022.9 hPa East 9.2 mph /  14.8 km/h 11.5 mph /  18.5 km/h 75 % 0.00 in /  0 mm
10:41 36.4 °F /  2.4 °C 29.6 °F /  -1.3 °C 30.20 in /  1022.6 hPa ENE 9.8 mph /  15.8 km/h 11.5 mph /  18.5 km/h 76 % 0.00 in /  0 mm
10:46 36.4 °F /  2.4 °C 29.6 °F /  -1.3 °C 30.20 in /  1022.6 hPa ENE 8.1 mph /  13 km/h 11.5 mph /  18.5 km/h 76 % 0.00 in /  0 mm
10:51 36.4 °F /  2.4 °C 29.6 °F /  -1.3 °C 30.20 in /  1022.6 hPa ENE 9.1 mph /  14.6 km/h 12.7 mph /  20.4 km/h 76 % 0.00 in /  0 mm
10:56 36.4 °F /  2.4 °C 29.6 °F /  -1.3 °C 30.20 in /  1022.6 hPa ENE 8.8 mph /  14.2 km/h 11.5 mph /  18.5 km/h 76 % 0.00 in /  0 mm
11:01 36.5 °F /  2.5 °C 30.0 °F /  -1.1 °C 30.19 in /  1022.2 hPa East 8.6 mph /  13.8 km/h 11.5 mph /  18.5 km/h 77 % 0.00 in /  0 mm
11:06 36.5 °F /  2.5 °C 29.7 °F /  -1.3 °C 30.20 in /  1022.6 hPa ENE 8.1 mph /  13 km/h 11.5 mph /  18.5 km/h 76 % 0.00 in /  0 mm
11:11 36.7 °F /  2.6 °C 30.2 °F /  -1 °C 30.20 in /  1022.6 hPa ENE 8.7 mph /  14 km/h 13.0 mph /  20.9 km/h 77 % 0.00 in /  0 mm
11:16 36.9 °F /  2.7 °C 30.0 °F /  -1.1 °C 30.19 in /  1022.2 hPa ENE 10.2 mph /  16.4 km/h 12.7 mph /  20.4 km/h 76 % 0.00 in /  0 mm
11:21 37.4 °F /  3 °C 30.5 °F /  -0.8 °C 30.19 in /  1022.2 hPa ENE 10.0 mph /  16.1 km/h 13.8 mph /  22.2 km/h 76 % 0.00 in /  0 mm
11:27 37.5 °F /  3.1 °C 30.3 °F /  -0.9 °C 30.19 in /  1022.2 hPa ENE 9.0 mph /  14.5 km/h 17.3 mph /  27.8 km/h 75 % 0.00 in /  0 mm
11:32 37.3 °F /  2.9 °C 30.1 °F /  -1.1 °C 30.19 in /  1022.2 hPa ENE 8.3 mph /  13.4 km/h 11.5 mph /  18.5 km/h 75 % 0.00 in /  0 mm
11:37 37.0 °F /  2.8 °C 30.1 °F /  -1.1 °C 30.19 in /  1022.2 hPa ENE 10.7 mph /  17.2 km/h 11.5 mph /  18.5 km/h 76 % 0.00 in /  0 mm
11:42 36.7 °F /  2.6 °C 29.8 °F /  -1.2 °C 30.19 in /  1022.2 hPa ENE 10.0 mph /  16.1 km/h 13.8 mph /  22.2 km/h 76 % 0.00 in /  0 mm
11:47 36.4 °F /  2.4 °C 29.9 °F /  -1.2 °C 30.19 in /  1022.2 hPa ENE 8.9 mph /  14.3 km/h 16.1 mph /  25.9 km/h 77 % 0.00 in /  0 mm
11:52 36.2 °F /  2.3 °C 30.0 °F /  -1.1 °C 30.19 in /  1022.2 hPa ENE 9.7 mph /  15.6 km/h 11.5 mph /  18.5 km/h 78 % 0.00 in /  0 mm
11:57 36.1 °F /  2.3 °C 29.9 °F /  -1.2 °C 30.18 in /  1021.9 hPa East 9.2 mph /  14.8 km/h 15.0 mph /  24.1 km/h 78 % 0.00 in /  0 mm
12:02 36.0 °F /  2.2 °C 29.5 °F /  -1.4 °C 30.18 in /  1021.9 hPa ENE 11.4 mph /  18.3 km/h 13.0 mph /  20.9 km/h 77 % 0.00 in /  0 mm
12:07 35.9 °F /  2.2 °C 29.7 °F /  -1.3 °C 30.17 in /  1021.6 hPa East 11.5 mph /  18.5 km/h 17.3 mph /  27.8 km/h 78 % 0.00 in /  0 mm
12:12 35.9 °F /  2.2 °C 29.7 °F /  -1.3 °C 30.17 in /  1021.6 hPa ENE 9.1 mph /  14.6 km/h 12.7 mph /  20.4 km/h 78 % 0.00 in /  0 mm
12:17 36.0 °F /  2.2 °C 29.8 °F /  -1.2 °C 30.18 in /  1021.9 hPa ENE 8.8 mph /  14.2 km/h 13.8 mph /  22.2 km/h 78 % 0.00 in /  0 mm
12:22 36.1 °F /  2.3 °C 30.2 °F /  -1 °C 30.18 in /  1021.9 hPa East 10.0 mph /  16.1 km/h 12.7 mph /  20.4 km/h 79 % 0.00 in /  0 mm
12:27 36.2 °F /  2.3 °C 30.6 °F /  -0.8 °C 30.18 in /  1021.9 hPa East 8.6 mph /  13.8 km/h 10.4 mph /  16.7 km/h 80 % 0.00 in /  0 mm
12:32 36.2 °F /  2.3 °C 30.3 °F /  -0.9 °C 30.17 in /  1021.6 hPa ENE 9.4 mph /  15.1 km/h 12.7 mph /  20.4 km/h 79 % 0.00 in /  0 mm
12:37 36.4 °F /  2.4 °C 30.8 °F /  -0.7 °C 30.17 in /  1021.6 hPa ENE 9.9 mph /  15.9 km/h 13.8 mph /  22.2 km/h 80 % 0.00 in /  0 mm
12:43 36.4 °F /  2.4 °C 30.8 °F /  -0.7 °C 30.17 in /  1021.6 hPa ENE 9.6 mph /  15.4 km/h 14.0 mph /  22.5 km/h 80 % 0.00 in /  0 mm
12:48 36.5 °F /  2.5 °C 30.9 °F /  -0.6 °C 30.17 in /  1021.6 hPa ENE 8.0 mph /  12.9 km/h 12.0 mph /  19.3 km/h 80 % 0.00 in /  0 mm
12:53 36.7 °F /  2.6 °C 31.4 °F /  -0.3 °C 30.17 in /  1021.6 hPa East 8.0 mph /  12.9 km/h 14.0 mph /  22.5 km/h 81 % 0.00 in /  0 mm
12:58 36.8 °F /  2.7 °C 31.5 °F /  -0.3 °C 30.17 in /  1021.6 hPa ENE 10.0 mph /  16.1 km/h 11.5 mph /  18.5 km/h 81 % 0.00 in /  0 mm
13:03 36.9 °F /  2.7 °C 31.6 °F /  -0.2 °C 30.17 in /  1021.6 hPa East 10.0 mph /  16.1 km/h 15.0 mph /  24.1 km/h 81 % 0.00 in /  0 mm
13:08 37.0 °F /  2.8 °C 31.7 °F /  -0.2 °C 30.17 in /  1021.6 hPa ENE 8.0 mph /  12.9 km/h 12.0 mph /  19.3 km/h 81 % 0.00 in /  0 mm
13:13 37.1 °F /  2.8 °C 31.8 °F /  -0.1 °C 30.17 in /  1021.6 hPa ENE 10.0 mph /  16.1 km/h 13.0 mph /  20.9 km/h 81 % 0.00 in /  0 mm
13:18 37.1 °F /  2.8 °C 31.8 °F /  -0.1 °C 30.16 in /  1021.2 hPa ENE 10.0 mph /  16.1 km/h 14.0 mph /  22.5 km/h 81 % 0.00 in /  0 mm
13:23 37.2 °F /  2.9 °C 31.9 °F /  -0.1 °C 30.16 in /  1021.2 hPa ENE 9.0 mph /  14.5 km/h 13.0 mph /  20.9 km/h 81 % 0.00 in /  0 mm
13:28 37.3 °F /  2.9 °C 32.3 °F /  0.2 °C 30.16 in /  1021.2 hPa East 9.0 mph /  14.5 km/h 13.0 mph /  20.9 km/h 82 % 0.00 in /  0 mm
13:33 37.3 °F /  2.9 °C 32.0 °F /  0 °C 30.16 in /  1021.2 hPa ENE 9.0 mph /  14.5 km/h 16.0 mph /  25.7 km/h 81 % 0.00 in /  0 mm
13:38 37.3 °F /  2.9 °C 32.3 °F /  0.2 °C 30.15 in /  1020.9 hPa ENE 9.3 mph /  15 km/h 12.7 mph /  20.4 km/h 82 % 0.00 in /  0 mm
13:43 37.3 °F /  2.9 °C 32.3 °F /  0.2 °C 30.15 in /  1020.9 hPa ENE 12.3 mph /  19.8 km/h 18.4 mph /  29.6 km/h 82 % 0.00 in /  0 mm
13:48 37.3 °F /  2.9 °C 32.6 °F /  0.3 °C 30.15 in /  1020.9 hPa ENE 8.6 mph /  13.8 km/h 11.5 mph /  18.5 km/h 83 % 0.00 in /  0 mm
13:53 37.4 °F /  3 °C 32.7 °F /  0.4 °C 30.15 in /  1020.9 hPa ENE 8.1 mph /  13 km/h 11.5 mph /  18.5 km/h 83 % 0.00 in /  0 mm
13:58 37.3 °F /  2.9 °C 32.9 °F /  0.5 °C 30.15 in /  1020.9 hPa East 9.1 mph /  14.6 km/h 11.5 mph /  18.5 km/h 84 % 0.00 in /  0 mm
14:03 37.3 °F /  2.9 °C 32.9 °F /  0.5 °C 30.14 in /  1020.5 hPa East 10.4 mph /  16.7 km/h 13.8 mph /  22.2 km/h 84 % 0.00 in /  0 mm
14:08 37.2 °F /  2.9 °C 33.1 °F /  0.6 °C 30.13 in /  1020.2 hPa ENE 10.8 mph /  17.4 km/h 13.0 mph /  20.9 km/h 85 % 0.00 in /  0 mm
14:13 37.3 °F /  2.9 °C 33.5 °F /  0.8 °C 30.13 in /  1020.2 hPa East 9.1 mph /  14.6 km/h 12.7 mph /  20.4 km/h 86 % 0.00 in /  0 mm
14:18 37.4 °F /  3 °C 33.6 °F /  0.9 °C 30.14 in /  1020.5 hPa East 8.1 mph /  13 km/h 10.0 mph /  16.1 km/h 86 % 0.00 in /  0 mm
14:23 37.5 °F /  3.1 °C 33.7 °F /  0.9 °C 30.13 in /  1020.2 hPa ENE 9.2 mph /  14.8 km/h 12.7 mph /  20.4 km/h 86 % 0.00 in /  0 mm
14:28 37.5 °F /  3.1 °C 33.7 °F /  0.9 °C 30.13 in /  1020.2 hPa ENE 9.8 mph /  15.8 km/h 13.0 mph /  20.9 km/h 86 % 0.00 in /  0 mm
14:33 37.4 °F /  3 °C 33.6 °F /  0.9 °C 30.13 in /  1020.2 hPa ENE 8.6 mph /  13.8 km/h 11.5 mph /  18.5 km/h 86 % 0.00 in /  0 mm
14:38 37.4 °F /  3 °C 33.6 °F /  0.9 °C 30.13 in /  1020.2 hPa East 8.4 mph /  13.5 km/h 11.5 mph /  18.5 km/h 86 % 0.00 in /  0 mm
14:43 37.4 °F /  3 °C 33.6 °F /  0.9 °C 30.13 in /  1020.2 hPa ENE 7.9 mph /  12.7 km/h 10.4 mph /  16.7 km/h 86 % 0.00 in /  0 mm
14:49 37.5 °F /  3.1 °C 33.7 °F /  0.9 °C 30.13 in /  1020.2 hPa ENE 7.1 mph /  11.4 km/h 10.4 mph /  16.7 km/h 86 % 0.00 in /  0 mm
14:54 37.5 °F /  3.1 °C 33.7 °F /  0.9 °C 30.14 in /  1020.5 hPa East 7.4 mph /  11.9 km/h 9.2 mph /  14.8 km/h 86 % 0.00 in /  0 mm
14:58 37.6 °F /  3.1 °C 33.8 °F /  1 °C 30.13 in /  1020.2 hPa ENE 7.6 mph /  12.2 km/h 10.4 mph /  16.7 km/h 86 % 0.00 in /  0 mm
15:04 37.7 °F /  3.2 °C 33.9 °F /  1.1 °C 30.13 in /  1020.2 hPa East 7.2 mph /  11.6 km/h 9.2 mph /  14.8 km/h 86 % 0.00 in /  0 mm
15:09 37.8 °F /  3.2 °C 34.0 °F /  1.1 °C 30.14 in /  1020.5 hPa East 6.6 mph /  10.6 km/h 7.0 mph /  11.3 km/h 86 % 0.00 in /  0 mm
15:14 37.8 °F /  3.2 °C 33.7 °F /  0.9 °C 30.14 in /  1020.5 hPa ENE 7.3 mph /  11.7 km/h 8.1 mph /  13 km/h 85 % 0.00 in /  0 mm
15:15 37.8 °F /  3.2 °C 33.7 °F /  0.9 °C 30.14 in /  1020.5 hPa East 6.4 mph /  10.3 km/h 9.2 mph /  14.8 km/h 85 % 0.00 in /  0 mm
15:20 37.8 °F /  3.2 °C 33.7 °F /  0.9 °C 30.14 in /  1020.5 hPa ENE 6.6 mph /  10.6 km/h 10.4 mph /  16.7 km/h 85 % 0.00 in /  0 mm
15:25 37.8 °F /  3.2 °C 33.4 °F /  0.8 °C 30.14 in /  1020.5 hPa NE 7.2 mph /  11.6 km/h 10.4 mph /  16.7 km/h 84 % 0.00 in /  0 mm
15:30 37.8 °F /  3.2 °C 33.7 °F /  0.9 °C 30.14 in /  1020.5 hPa ENE 6.4 mph /  10.3 km/h 9.0 mph /  14.5 km/h 85 % 0.00 in /  0 mm
15:35 37.8 °F /  3.2 °C 33.4 °F /  0.8 °C 30.13 in /  1020.2 hPa ENE 7.5 mph /  12.1 km/h 10.4 mph /  16.7 km/h 84 % 0.00 in /  0 mm
15:40 37.8 °F /  3.2 °C 33.4 °F /  0.8 °C 30.13 in /  1020.2 hPa ENE 7.6 mph /  12.2 km/h 10.4 mph /  16.7 km/h 84 % 0.00 in /  0 mm
15:45 37.8 °F /  3.2 °C 33.4 °F /  0.8 °C 30.13 in /  1020.2 hPa ENE 8.1 mph /  13 km/h 10.4 mph /  16.7 km/h 84 % 0.00 in /  0 mm
15:50 37.8 °F /  3.2 °C 33.4 °F /  0.8 °C 30.13 in /  1020.2 hPa East 6.7 mph /  10.8 km/h 9.2 mph /  14.8 km/h 84 % 0.00 in /  0 mm
15:55 37.7 °F /  3.2 °C 33.0 °F /  0.6 °C 30.14 in /  1020.5 hPa ENE 8.5 mph /  13.7 km/h 12.7 mph /  20.4 km/h 83 % 0.00 in /  0 mm
16:00 37.7 °F /  3.2 °C 33.0 °F /  0.6 °C 30.14 in /  1020.5 hPa East 7.2 mph /  11.6 km/h 11.5 mph /  18.5 km/h 83 % 0.00 in /  0 mm
16:05 37.7 °F /  3.2 °C 32.7 °F /  0.4 °C 30.14 in /  1020.5 hPa ENE 6.3 mph /  10.1 km/h 10.4 mph /  16.7 km/h 82 % 0.00 in /  0 mm
16:10 37.6 °F /  3.1 °C 32.6 °F /  0.3 °C 30.13 in /  1020.2 hPa East 8.6 mph /  13.8 km/h 11.5 mph /  18.5 km/h 82 % 0.00 in /  0 mm
16:16 37.5 °F /  3.1 °C 32.5 °F /  0.3 °C 30.13 in /  1020.2 hPa ENE 6.4 mph /  10.3 km/h 10.4 mph /  16.7 km/h 82 % 0.00 in /  0 mm
16:21 37.5 °F /  3.1 °C 32.8 °F /  0.4 °C 30.14 in /  1020.5 hPa ENE 7.3 mph /  11.7 km/h 10.4 mph /  16.7 km/h 83 % 0.00 in /  0 mm
16:26 37.3 °F /  2.9 °C 32.9 °F /  0.5 °C 30.13 in /  1020.2 hPa ENE 8.0 mph /  12.9 km/h 10.4 mph /  16.7 km/h 84 % 0.00 in /  0 mm
16:31 37.2 °F /  2.9 °C 33.1 °F /  0.6 °C 30.13 in /  1020.2 hPa East 7.2 mph /  11.6 km/h 10.4 mph /  16.7 km/h 85 % 0.00 in /  0 mm
16:36 37.0 °F /  2.8 °C 32.9 °F /  0.5 °C 30.13 in /  1020.2 hPa East 8.1 mph /  13 km/h 10.4 mph /  16.7 km/h 85 % 0.00 in /  0 mm
16:41 36.8 °F /  2.7 °C 33.0 °F /  0.6 °C 30.13 in /  1020.2 hPa East 7.8 mph /  12.6 km/h 10.4 mph /  16.7 km/h 86 % 0.00 in /  0 mm
16:46 36.6 °F /  2.6 °C 33.1 °F /  0.6 °C 30.13 in /  1020.2 hPa East 7.1 mph /  11.4 km/h 9.2 mph /  14.8 km/h 87 % 0.00 in /  0 mm
16:51 36.5 °F /  2.5 °C 33.3 °F /  0.7 °C 30.13 in /  1020.2 hPa East 7.5 mph /  12.1 km/h 11.5 mph /  18.5 km/h 88 % 0.00 in /  0 mm
16:56 36.5 °F /  2.5 °C 33.6 °F /  0.9 °C 30.13 in /  1020.2 hPa ENE 7.6 mph /  12.2 km/h 10.4 mph /  16.7 km/h 89 % 0.00 in /  0 mm
17:01 36.4 °F /  2.4 °C 33.5 °F /  0.8 °C 30.14 in /  1020.5 hPa ENE 7.4 mph /  11.9 km/h 11.5 mph /  18.5 km/h 89 % 0.00 in /  0 mm
17:06 36.4 °F /  2.4 °C 33.5 °F /  0.8 °C 30.13 in /  1020.2 hPa East 6.7 mph /  10.8 km/h 8.1 mph /  13 km/h 89 % 0.00 in /  0 mm
17:11 36.3 °F /  2.4 °C 33.4 °F /  0.8 °C 30.14 in /  1020.5 hPa ENE 5.8 mph /  9.3 km/h 8.1 mph /  13 km/h 89 % 0.01 in /  0.25 mm
17:16 36.2 °F /  2.3 °C 33.3 °F /  0.7 °C 30.13 in /  1020.2 hPa East 7.5 mph /  12.1 km/h 10.4 mph /  16.7 km/h 89 % 0.01 in /  0.25 mm
17:21 36.2 °F /  2.3 °C 33.3 °F /  0.7 °C 30.13 in /  1020.2 hPa ESE 8.9 mph /  14.3 km/h 12.0 mph /  19.3 km/h 89 % 0.01 in /  0.25 mm
17:26 36.2 °F /  2.3 °C 33.5 °F /  0.8 °C 30.12 in /  1019.9 hPa East 8.2 mph /  13.2 km/h 10.4 mph /  16.7 km/h 90 % 0.01 in /  0.25 mm
17:31 36.2 °F /  2.3 °C 33.5 °F /  0.8 °C 30.12 in /  1019.9 hPa East 7.8 mph /  12.6 km/h 10.4 mph /  16.7 km/h 90 % 0.01 in /  0.25 mm
17:36 36.2 °F /  2.3 °C 33.3 °F /  0.7 °C 30.12 in /  1019.9 hPa East 8.6 mph /  13.8 km/h 10.4 mph /  16.7 km/h 89 % 0.01 in /  0.25 mm
17:41 36.3 °F /  2.4 °C 33.4 °F /  0.8 °C 30.12 in /  1019.9 hPa East 8.2 mph /  13.2 km/h 11.5 mph /  18.5 km/h 89 % 0.01 in /  0.25 mm
17:46 36.3 °F /  2.4 °C 33.4 °F /  0.8 °C 30.12 in /  1019.9 hPa ENE 8.8 mph /  14.2 km/h 12.7 mph /  20.4 km/h 89 % 0.01 in /  0.25 mm
17:51 36.3 °F /  2.4 °C 33.1 °F /  0.6 °C 30.13 in /  1020.2 hPa East 7.4 mph /  11.9 km/h 11.5 mph /  18.5 km/h 88 % 0.01 in /  0.25 mm
17:57 36.4 °F /  2.4 °C 33.2 °F /  0.7 °C 30.13 in /  1020.2 hPa ENE 9.3 mph /  15 km/h 11.5 mph /  18.5 km/h 88 % 0.01 in /  0.25 mm
18:02 36.4 °F /  2.4 °C 32.9 °F /  0.5 °C 30.14 in /  1020.5 hPa ENE 7.0 mph /  11.3 km/h 13.8 mph /  22.2 km/h 87 % 0.01 in /  0.25 mm
18:07 36.4 °F /  2.4 °C 32.9 °F /  0.5 °C 30.14 in /  1020.5 hPa ENE 7.6 mph /  12.2 km/h 10.4 mph /  16.7 km/h 87 % 0.01 in /  0.25 mm
18:12 36.4 °F /  2.4 °C 32.9 °F /  0.5 °C 30.14 in /  1020.5 hPa ENE 7.0 mph /  11.3 km/h 8.1 mph /  13 km/h 87 % 0.00 in /  0 mm
18:17 36.4 °F /  2.4 °C 32.6 °F /  0.3 °C 30.14 in /  1020.5 hPa ENE 7.8 mph /  12.6 km/h 10.4 mph /  16.7 km/h 86 % 0.00 in /  0 mm
18:22 36.4 °F /  2.4 °C 32.6 °F /  0.3 °C 30.14 in /  1020.5 hPa East 6.5 mph /  10.5 km/h 9.2 mph /  14.8 km/h 86 % 0.00 in /  0 mm
18:27 36.5 °F /  2.5 °C 32.4 °F /  0.2 °C 30.14 in /  1020.5 hPa ENE 6.4 mph /  10.3 km/h 8.1 mph /  13 km/h 85 % 0.00 in /  0 mm
18:32 36.6 °F /  2.6 °C 32.5 °F /  0.3 °C 30.14 in /  1020.5 hPa ENE 5.6 mph /  9 km/h 8.1 mph /  13 km/h 85 % 0.00 in /  0 mm
18:37 36.6 °F /  2.6 °C 32.2 °F /  0.1 °C 30.15 in /  1020.9 hPa ENE 5.2 mph /  8.4 km/h 9.2 mph /  14.8 km/h 84 % 0.00 in /  0 mm
18:42 36.7 °F /  2.6 °C 32.3 °F /  0.2 °C 30.15 in /  1020.9 hPa East 5.8 mph /  9.3 km/h 8.0 mph /  12.9 km/h 84 % 0.00 in /  0 mm
18:47 36.8 °F /  2.7 °C 32.1 °F /  0.1 °C 30.16 in /  1021.2 hPa ENE 7.3 mph /  11.7 km/h 10.4 mph /  16.7 km/h 83 % 0.00 in /  0 mm
18:52 36.8 °F /  2.7 °C 32.1 °F /  0.1 °C 30.16 in /  1021.2 hPa East 6.8 mph /  10.9 km/h 10.4 mph /  16.7 km/h 83 % 0.00 in /  0 mm
18:57 36.8 °F /  2.7 °C 31.8 °F /  -0.1 °C 30.16 in /  1021.2 hPa NE 7.0 mph /  11.3 km/h 9.2 mph /  14.8 km/h 82 % 0.00 in /  0 mm
19:02 36.8 °F /  2.7 °C 31.8 °F /  -0.1 °C 30.16 in /  1021.2 hPa ENE 6.3 mph /  10.1 km/h 10.4 mph /  16.7 km/h 82 % 0.00 in /  0 mm
19:07 36.8 °F /  2.7 °C 31.8 °F /  -0.1 °C 30.16 in /  1021.2 hPa ENE 7.9 mph /  12.7 km/h 9.2 mph /  14.8 km/h 82 % 0.00 in /  0 mm
19:12 36.7 °F /  2.6 °C 31.7 °F /  -0.2 °C 30.16 in /  1021.2 hPa ENE 8.4 mph /  13.5 km/h 10.4 mph /  16.7 km/h 82 % 0.00 in /  0 mm
19:17 36.6 °F /  2.6 °C 31.9 °F /  -0.1 °C 30.16 in /  1021.2 hPa East 7.4 mph /  11.9 km/h 11.5 mph /  18.5 km/h 83 % 0.00 in /  0 mm
19:22 36.4 °F /  2.4 °C 31.7 °F /  -0.2 °C 30.16 in /  1021.2 hPa ENE 9.6 mph /  15.4 km/h 12.0 mph /  19.3 km/h 83 % 0.00 in /  0 mm
19:27 36.3 °F /  2.4 °C 31.9 °F /  -0.1 °C 30.16 in /  1021.2 hPa ENE 9.8 mph /  15.8 km/h 13.8 mph /  22.2 km/h 84 % 0.00 in /  0 mm
19:32 36.2 °F /  2.3 °C 31.8 °F /  -0.1 °C 30.16 in /  1021.2 hPa ENE 10.0 mph /  16.1 km/h 12.7 mph /  20.4 km/h 84 % 0.00 in /  0 mm
19:37 36.1 °F /  2.3 °C 32.0 °F /  0 °C 30.16 in /  1021.2 hPa East 10.8 mph /  17.4 km/h 15.0 mph /  24.1 km/h 85 % 0.00 in /  0 mm
19:42 36.1 °F /  2.3 °C 32.0 °F /  0 °C 30.15 in /  1020.9 hPa East 11.6 mph /  18.7 km/h 15.0 mph /  24.1 km/h 85 % 0.00 in /  0 mm
19:47 36.1 °F /  2.3 °C 32.0 °F /  0 °C 30.15 in /  1020.9 hPa ENE 10.5 mph /  16.9 km/h 13.8 mph /  22.2 km/h 85 % 0.00 in /  0 mm
19:52 36.2 °F /  2.3 °C 32.1 °F /  0.1 °C 30.15 in /  1020.9 hPa ENE 10.2 mph /  16.4 km/h 13.0 mph /  20.9 km/h 85 % 0.00 in /  0 mm
19:56 36.3 °F /  2.4 °C 32.2 °F /  0.1 °C 30.15 in /  1020.9 hPa ENE 8.8 mph /  14.2 km/h 11.5 mph /  18.5 km/h 85 % 0.00 in /  0 mm
20:01 36.4 °F /  2.4 °C 32.3 °F /  0.2 °C 30.15 in /  1020.9 hPa ENE 8.4 mph /  13.5 km/h 10.4 mph /  16.7 km/h 85 % 0.00 in /  0 mm
20:06 36.4 °F /  2.4 °C 32.3 °F /  0.2 °C 30.15 in /  1020.9 hPa East 12.7 mph /  20.4 km/h 13.8 mph /  22.2 km/h 85 % 0.00 in /  0 mm
20:11 36.5 °F /  2.5 °C 32.4 °F /  0.2 °C 30.14 in /  1020.5 hPa East 8.9 mph /  14.3 km/h 12.7 mph /  20.4 km/h 85 % 0.00 in /  0 mm
20:16 36.6 °F /  2.6 °C 32.5 °F /  0.3 °C 30.15 in /  1020.9 hPa ENE 8.2 mph /  13.2 km/h 12.7 mph /  20.4 km/h 85 % 0.00 in /  0 mm
20:21 36.6 °F /  2.6 °C 32.5 °F /  0.3 °C 30.14 in /  1020.5 hPa ENE 10.4 mph /  16.7 km/h 11.5 mph /  18.5 km/h 85 % 0.00 in /  0 mm
20:26 36.7 °F /  2.6 °C 32.6 °F /  0.3 °C 30.14 in /  1020.5 hPa ENE 8.6 mph /  13.8 km/h 11.5 mph /  18.5 km/h 85 % 0.00 in /  0 mm
20:32 36.7 °F /  2.6 °C 32.9 °F /  0.5 °C 30.15 in /  1020.9 hPa East 10.1 mph /  16.3 km/h 12.7 mph /  20.4 km/h 86 % 0.00 in /  0 mm
20:37 36.8 °F /  2.7 °C 32.7 °F /  0.4 °C 30.15 in /  1020.9 hPa East 10.6 mph /  17.1 km/h 15.0 mph /  24.1 km/h 85 % 0.00 in /  0 mm
20:42 36.9 °F /  2.7 °C 32.8 °F /  0.4 °C 30.15 in /  1020.9 hPa ENE 8.8 mph /  14.2 km/h 15.0 mph /  24.1 km/h 85 % 0.00 in /  0 mm
20:47 37.0 °F /  2.8 °C 33.5 °F /  0.8 °C 30.15 in /  1020.9 hPa ENE 9.1 mph /  14.6 km/h 15.0 mph /  24.1 km/h 87 % 0.00 in /  0 mm
20:52 37.0 °F /  2.8 °C 33.5 °F /  0.8 °C 30.15 in /  1020.9 hPa ENE 11.7 mph /  18.8 km/h 17.3 mph /  27.8 km/h 87 % 0.00 in /  0 mm
20:57 37.0 °F /  2.8 °C 33.8 °F /  1 °C 30.15 in /  1020.9 hPa ENE 11.3 mph /  18.2 km/h 16.1 mph /  25.9 km/h 88 % 0.00 in /  0 mm
21:02 37.0 °F /  2.8 °C 33.5 °F /  0.8 °C 30.15 in /  1020.9 hPa ENE 10.7 mph /  17.2 km/h 16.1 mph /  25.9 km/h 87 % 0.00 in /  0 mm
21:07 37.0 °F /  2.8 °C 33.2 °F /  0.7 °C 30.15 in /  1020.9 hPa ENE 11.5 mph /  18.5 km/h 16.1 mph /  25.9 km/h 86 % 0.00 in /  0 mm
21:12 37.0 °F /  2.8 °C 32.9 °F /  0.5 °C 30.15 in /  1020.9 hPa ENE 10.9 mph /  17.5 km/h 17.3 mph /  27.8 km/h 85 % 0.00 in /  0 mm
21:17 37.0 °F /  2.8 °C 32.9 °F /  0.5 °C 30.15 in /  1020.9 hPa East 11.1 mph /  17.9 km/h 14.0 mph /  22.5 km/h 85 % 0.00 in /  0 mm
21:22 37.0 °F /  2.8 °C 32.9 °F /  0.5 °C 30.15 in /  1020.9 hPa East 11.2 mph /  18 km/h 14.0 mph /  22.5 km/h 85 % 0.00 in /  0 mm
21:27 37.0 °F /  2.8 °C 32.9 °F /  0.5 °C 30.15 in /  1020.9 hPa East 9.3 mph /  15 km/h 13.8 mph /  22.2 km/h 85 % 0.00 in /  0 mm
21:32 36.9 °F /  2.7 °C 32.5 °F /  0.3 °C 30.15 in /  1020.9 hPa ENE 12.3 mph /  19.8 km/h 17.3 mph /  27.8 km/h 84 % 0.00 in /  0 mm
21:37 36.9 °F /  2.7 °C 32.2 °F /  0.1 °C 30.15 in /  1020.9 hPa East 11.7 mph /  18.8 km/h 16.1 mph /  25.9 km/h 83 % 0.00 in /  0 mm
21:42 36.9 °F /  2.7 °C 32.2 °F /  0.1 °C 30.14 in /  1020.5 hPa ENE 10.0 mph /  16.1 km/h 15.0 mph /  24.1 km/h 83 % 0.00 in /  0 mm
21:47 36.9 °F /  2.7 °C 32.2 °F /  0.1 °C 30.15 in /  1020.9 hPa East 9.4 mph /  15.1 km/h 14.0 mph /  22.5 km/h 83 % 0.00 in /  0 mm
21:52 36.9 °F /  2.7 °C 31.9 °F /  -0.1 °C 30.15 in /  1020.9 hPa East 10.6 mph /  17.1 km/h 13.8 mph /  22.2 km/h 82 % 0.00 in /  0 mm
21:57 36.9 °F /  2.7 °C 31.9 °F /  -0.1 °C 30.15 in /  1020.9 hPa East 10.3 mph /  16.6 km/h 13.8 mph /  22.2 km/h 82 % 0.00 in /  0 mm
22:02 36.9 °F /  2.7 °C 31.9 °F /  -0.1 °C 30.14 in /  1020.5 hPa ENE 10.2 mph /  16.4 km/h 16.1 mph /  25.9 km/h 82 % 0.00 in /  0 mm
22:07 36.9 °F /  2.7 °C 31.6 °F /  -0.2 °C 30.14 in /  1020.5 hPa ENE 10.1 mph /  16.3 km/h 13.8 mph /  22.2 km/h 81 % 0.00 in /  0 mm
22:12 36.9 °F /  2.7 °C 31.6 °F /  -0.2 °C 30.14 in /  1020.5 hPa NE 9.8 mph /  15.8 km/h 13.0 mph /  20.9 km/h 81 % 0.00 in /  0 mm
22:17 36.9 °F /  2.7 °C 31.6 °F /  -0.2 °C 30.14 in /  1020.5 hPa ENE 11.2 mph /  18 km/h 15.0 mph /  24.1 km/h 81 % 0.00 in /  0 mm
22:22 37.0 °F /  2.8 °C 31.7 °F /  -0.2 °C 30.14 in /  1020.5 hPa East 9.7 mph /  15.6 km/h 11.5 mph /  18.5 km/h 81 % 0.00 in /  0 mm
22:27 36.9 °F /  2.7 °C 31.9 °F /  -0.1 °C 30.14 in /  1020.5 hPa East 10.7 mph /  17.2 km/h 18.4 mph /  29.6 km/h 82 % 0.00 in /  0 mm
22:33 36.9 °F /  2.7 °C 31.9 °F /  -0.1 °C 30.14 in /  1020.5 hPa East 13.2 mph /  21.2 km/h 16.1 mph /  25.9 km/h 82 % 0.00 in /  0 mm
22:38 36.8 °F /  2.7 °C 31.8 °F /  -0.1 °C 30.14 in /  1020.5 hPa ENE 12.0 mph /  19.3 km/h 17.0 mph /  27.4 km/h 82 % 0.00 in /  0 mm
22:43 36.8 °F /  2.7 °C 31.8 °F /  -0.1 °C 30.14 in /  1020.5 hPa ENE 12.0 mph /  19.3 km/h 22.0 mph /  35.4 km/h 82 % 0.00 in /  0 mm
22:48 36.7 °F /  2.6 °C 31.7 °F /  -0.2 °C 30.15 in /  1020.9 hPa East 12.6 mph /  20.3 km/h 15.0 mph /  24.1 km/h 82 % 0.00 in /  0 mm
22:53 36.7 °F /  2.6 °C 31.7 °F /  -0.2 °C 30.14 in /  1020.5 hPa ENE 10.0 mph /  16.1 km/h 17.0 mph /  27.4 km/h 82 % 0.00 in /  0 mm
22:58 36.6 °F /  2.6 °C 31.3 °F /  -0.4 °C 30.14 in /  1020.5 hPa East 13.6 mph /  21.9 km/h 18.4 mph /  29.6 km/h 81 % 0.00 in /  0 mm
23:03 36.4 °F /  2.4 °C 31.1 °F /  -0.5 °C 30.14 in /  1020.5 hPa ENE 11.9 mph /  19.2 km/h 16.1 mph /  25.9 km/h 81 % 0.00 in /  0 mm
23:08 36.4 °F /  2.4 °C 31.1 °F /  -0.5 °C 30.14 in /  1020.5 hPa ENE 11.1 mph /  17.9 km/h 18.0 mph /  29 km/h 81 % 0.00 in /  0 mm
23:13 36.3 °F /  2.4 °C 31.0 °F /  -0.6 °C 30.14 in /  1020.5 hPa East 12.1 mph /  19.5 km/h 20.7 mph /  33.3 km/h 81 % 0.00 in /  0 mm
23:18 36.2 °F /  2.3 °C 30.9 °F /  -0.6 °C 30.14 in /  1020.5 hPa East 11.5 mph /  18.5 km/h 15.0 mph /  24.1 km/h 81 % 0.00 in /  0 mm
23:23 36.1 °F /  2.3 °C 30.8 °F /  -0.7 °C 30.14 in /  1020.5 hPa East 13.1 mph /  21.1 km/h 21.9 mph /  35.2 km/h 81 % 0.00 in /  0 mm
23:26 36.0 °F /  2.2 °C 30.4 °F /  -0.9 °C 30.14 in /  1020.5 hPa ENE 14.9 mph /  24 km/h 19.6 mph /  31.5 km/h 80 % 0.00 in /  0 mm
23:31 35.9 °F /  2.2 °C 30.3 °F /  -0.9 °C 30.14 in /  1020.5 hPa East 14.5 mph /  23.3 km/h 19.6 mph /  31.5 km/h 80 % 0.00 in /  0 mm
23:36 35.9 °F /  2.2 °C 30.3 °F /  -0.9 °C 30.14 in /  1020.5 hPa East 11.9 mph /  19.2 km/h 19.6 mph /  31.5 km/h 80 % 0.00 in /  0 mm
23:41 35.8 °F /  2.1 °C 30.2 °F /  -1 °C 30.15 in /  1020.9 hPa ENE 13.3 mph /  21.4 km/h 19.6 mph /  31.5 km/h 80 % 0.00 in /  0 mm
23:46 35.8 °F /  2.1 °C 30.2 °F /  -1 °C 30.14 in /  1020.5 hPa East 13.9 mph /  22.4 km/h 18.4 mph /  29.6 km/h 80 % 0.00 in /  0 mm
23:51 35.8 °F /  2.1 °C 30.8 °F /  -0.7 °C 30.14 in /  1020.5 hPa ENE 13.8 mph /  22.2 km/h 21.9 mph /  35.2 km/h 82 % 0.00 in /  0 mm
23:56 35.8 °F /  2.1 °C 30.5 °F /  -0.8 °C 30.14 in /  1020.5 hPa ENE 10.0 mph /  16.1 km/h 13.0 mph /  20.9 km/h 81 % 0.00 in /  0 mm
Crab Meadow Weather
Compliments of Weather Underground - 3 mb

Script developed by  Jim McMurry - jmcmurry@mwt.net Adapted for the template by  Wim van der Kuil - Leuven-Template.eu

Extremes: By average annual rainfall, the wettest place in the world is Mawslynram, in Meghalaya State, India with 467 1/2 inches per annum.